Time;durP1;ratioP1;P1;durP2;ratioP2;P2;SDS_P1;SDS_P2;PMS_P1;PMS_P2;Temp;Humidity;BMP_temperature;BMP_pressure;BME280_temperature;BME280_humidity;BME280_pressure;Samples;Min_cycle;Max_cycle;Signal;HPM_P1;HPM_P2
2022/11/17 00:00:40;;;;;;;63.70;33.78;;;;;;;9.17;77.57;99745.09;6360948;22;20015;-95
2022/11/17 00:06:33;;;;;;;64.00;33.65;;;;;;;9.17;77.18;99739.75;6374412;22;20044;-95
2022/11/17 00:09:37;;;;;;;64.53;34.47;;;;;;;9.41;77.13;99772.81;6348693;22;20434;-94
2022/11/17 00:15:38;;;;;;;68.70;34.13;;;;;;;9.14;76.93;99740.09;6378953;22;20025;-94
2022/11/17 00:28:54;;;;;;;67.35;34.45;;;;;;;9.10;77.51;99738.75;6349130;22;20261;-96
2022/11/17 00:34:29;;;;;;;66.65;35.08;;;;;;;9.19;77.51;99736.88;6294035;22;20022;-95
2022/11/17 00:37:00;;;;;;;65.70;35.70;;;;;;;9.23;76.75;99733.69;6285888;22;20063;-93
2022/11/17 00:39:41;;;;;;;67.53;34.50;;;;;;;9.52;77.11;99770.59;6340078;22;20011;-96
2022/11/17 00:43:06;;;;;;;62.40;34.22;;;;;;;9.63;76.62;99761.31;6322227;22;20399;-95
2022/11/17 00:45:37;;;;;;;63.55;34.22;;;;;;;9.25;77.09;99720.13;6327554;22;20011;-95
2022/11/17 00:48:06;;;;;;;67.57;33.95;;;;;;;9.11;76.95;99694.00;6310419;22;20015;-92
2022/11/17 00:50:36;;;;;;;66.30;34.47;;;;;;;9.35;77.14;99727.94;6336681;22;20408;-95
2022/11/17 00:53:19;;;;;;;61.60;33.90;;;;;;;9.29;77.19;99710.69;6337674;22;20011;-94
2022/11/17 00:56:12;;;;;;;59.72;32.15;;;;;;;9.29;76.92;99694.59;6321952;22;20011;-94
2022/11/17 00:58:40;;;;;;;65.35;34.85;;;;;;;9.71;76.94;99755.06;6285826;22;20033;-93
2022/11/17 01:05:34;;;;;;;65.30;33.58;;;;;;;9.70;76.95;99748.84;6349401;22;20024;-96
2022/11/17 01:11:28;;;;;;;57.63;30.35;;;;;;;9.62;76.82;99705.97;6341117;22;20056;-94
2022/11/17 01:14:01;;;;;;;57.50;31.33;;;;;;;9.65;77.04;99699.41;6280156;22;20474;-96
2022/11/17 01:16:32;;;;;;;61.25;31.70;;;;;;;9.94;76.50;99742.47;6287769;22;20069;-93
2022/11/17 01:19:13;;;;;;;58.83;30.20;;;;;;;9.68;76.45;99693.69;6311967;22;20011;-95
2022/11/17 01:22:07;;;;;;;59.28;31.02;;;;;;;9.84;77.21;99736.50;6313279;22;20011;-95
2022/11/17 01:24:34;;;;;;;55.85;30.42;;;;;;;9.61;76.70;99673.94;6346581;22;20014;-95
2022/11/17 01:27:07;;;;;;;60.22;30.63;;;;;;;9.98;76.92;99732.22;6319209;22;20027;-95
2022/11/17 01:29:40;;;;;;;52.60;29.33;;;;;;;9.88;76.61;99694.88;6289389;22;20121;-95
2022/11/17 01:32:06;;;;;;;64.68;30.90;;;;;;;9.82;76.34;99670.59;6341333;22;20066;-96
2022/11/17 01:35:11;;;;;;;54.75;30.70;;;;;;;10.06;76.61;99702.59;6282415;22;20102;-96
2022/11/17 01:41:46;;;;;;;51.58;28.98;;;;;;;10.21;76.79;99710.72;6341103;22;20104;-95
2022/11/17 01:47:58;;;;;;;54.70;28.58;;;;;;;9.91;76.75;99634.63;6345709;22;20198;-94
2022/11/17 01:53:35;;;;;;;55.17;29.52;;;;;;;10.20;77.04;99670.59;6362571;22;20019;-94
2022/11/17 01:56:04;;;;;;;56.03;28.92;;;;;;;10.36;76.27;99673.16;6335778;22;20002;-93
2022/11/17 01:59:00;;;;;;;50.97;28.75;;;;;;;10.10;76.84;99628.72;6312635;22;20061;-93
2022/11/17 02:01:32;;;;;;;50.47;28.77;;;;;;;10.52;76.91;99672.97;6311921;22;20140;-96
2022/11/17 02:03:59;;;;;;;59.30;28.65;;;;;;;10.31;76.55;99629.88;6311801;22;20101;-95
2022/11/17 02:06:33;;;;;;;52.03;28.90;;;;;;;10.48;76.87;99636.75;6285130;22;20015;-95
2022/11/17 02:09:03;;;;;;;52.35;26.77;;;;;;;10.65;76.56;99645.47;6284337;22;20011;-95
2022/11/17 02:11:34;;;;;;;52.38;28.75;;;;;;;10.69;76.49;99644.06;6285242;22;20003;-95
2022/11/17 02:14:01;;;;;;;50.58;27.90;;;;;;;10.88;75.97;99658.78;6312796;22;20292;-95
2022/11/17 02:16:28;;;;;;;;;;;;;;;11.12;75.57;99673.78;6259233;22;20014;-94
2022/11/17 02:19:14;;;;;;;48.05;26.70;;;;;;;11.13;75.51;99666.53;6311800;22;19963;-95
2022/11/17 02:22:18;;;;;;;50.70;27.23;;;;;;;10.89;75.32;99632.75;6284325;22;20026;-95
2022/11/17 02:28:19;;;;;;;47.85;26.13;;;;;;;11.27;74.87;99668.38;6360846;22;20049;-94
2022/11/17 02:31:38;;;;;;;50.00;27.50;;;;;;;11.33;75.11;99666.75;6353531;22;20006;-94
2022/11/17 02:35:18;;;;;;;45.72;26.45;;;;;;;11.41;74.55;99670.16;6304284;22;20030;-96
2022/11/17 02:41:33;;;;;;;49.15;28.15;;;;;;;11.28;73.64;99674.56;6289764;22;20100;-93
2022/11/17 02:44:41;;;;;;;50.92;28.40;;;;;;;11.32;73.75;99673.19;6263698;22;20008;-93
2022/11/17 02:47:46;;;;;;;53.00;28.30;;;;;;;11.32;73.67;99665.94;6293366;22;20055;-93
2022/11/17 02:50:22;;;;;;;55.67;28.55;;;;;;;11.07;73.35;99630.44;6204424;23;20004;-94
2022/11/17 02:52:56;;;;;;;51.35;28.20;;;;;;;10.93;73.72;99620.56;6209665;23;20361;-93
2022/11/17 02:55:26;;;;;;;52.63;28.88;;;;;;;11.11;73.12;99634.44;6189595;23;20107;-94
2022/11/17 02:57:53;;;;;;;59.25;29.77;;;;;;;11.13;73.12;99635.09;6211780;23;20075;-96
2022/11/17 03:00:37;;;;;;;57.55;30.05;;;;;;;11.03;73.33;99618.44;6214252;23;20044;-94
2022/11/17 03:03:47;;;;;;;56.25;29.58;;;;;;;11.20;73.44;99652.13;6189837;23;20096;-92
2022/11/17 03:06:23;;;;;;;52.90;29.27;;;;;;;10.99;73.40;99617.13;6219210;23;20009;-95
2022/11/17 03:09:41;;;;;;;57.30;30.60;;;;;;;10.82;73.73;99615.69;6211585;23;20013;-92
2022/11/17 03:12:56;;;;;;;51.30;30.17;;;;;;;10.94;73.25;99608.81;6246435;22;20018;-93
2022/11/17 03:16:08;;;;;;;56.00;30.63;;;;;;;10.98;74.11;99637.00;6282628;22;20031;-96
2022/11/17 03:19:10;;;;;;;53.05;29.08;;;;;;;10.67;74.42;99581.56;6247665;22;20008;-96
2022/11/17 03:21:58;;;;;;;54.42;30.13;;;;;;;10.98;74.31;99623.56;6212603;22;20105;-94
2022/11/17 03:24:35;;;;;;;56.63;30.35;;;;;;;10.97;74.27;99605.72;6271215;22;20102;-96
2022/11/17 03:27:26;;;;;;;48.97;28.55;;;;;;;10.90;74.17;99583.31;6276237;22;20011;-95
2022/11/17 03:30:15;;;;;;;54.90;29.65;;;;;;;10.97;74.53;99597.66;6301261;22;20030;-95
2022/11/17 03:33:14;;;;;;;49.50;28.25;;;;;;;10.90;74.65;99594.06;6267479;22;20031;-96
2022/11/17 03:43:52;;;;;;;52.08;27.77;;;;;;;10.97;75.24;99613.78;6316305;22;20011;-96
2022/11/17 04:09:35;;;;;;;48.97;27.40;;;;;;;11.25;74.34;99576.22;6295355;22;20042;-96
2022/11/17 04:36:53;;;;;;;53.33;27.52;;;;;;;11.56;73.96;99575.91;6263434;22;20030;-94
2022/11/17 04:39:46;;;;;;;52.67;27.98;;;;;;;11.55;73.90;99574.25;6229597;23;20024;-95
2022/11/17 04:45:39;;;;;;;60.65;28.63;;;;;;;11.51;74.26;99582.91;6261403;22;20027;-95
2022/11/17 04:48:42;;;;;;;52.80;28.45;;;;;;;11.32;74.16;99542.16;6201400;23;20012;-95
2022/11/17 05:09:12;;;;;;;64.60;35.75;;;;;;;11.86;73.98;99596.44;6367924;22;20114;-92
2022/11/17 05:14:26;;;;;;;58.95;29.85;;;;;;;11.69;73.16;99542.88;6344938;22;20488;-93
2022/11/17 05:17:09;;;;;;;57.55;29.83;;;;;;;11.78;72.99;99562.44;6340118;22;20399;-92
2022/11/17 05:19:48;;;;;;;64.45;30.85;;;;;;;11.96;73.23;99587.03;6379537;22;20086;-92
2022/11/17 05:25:04;;;;;;;61.45;29.33;;;;;;;11.94;72.88;99561.31;6344979;22;20037;-92
2022/11/17 05:27:33;;;;;;;63.15;29.85;;;;;;;12.11;72.91;99578.03;6309837;22;20014;-93
2022/11/17 05:30:00;;;;;;;60.60;30.00;;;;;;;11.99;72.63;99554.31;6315727;22;20423;-91
2022/11/17 05:32:27;;;;;;;57.72;30.65;;;;;;;11.93;72.86;99536.25;6315432;22;20093;-92
2022/11/17 05:35:15;;;;;;;57.28;31.13;;;;;;;12.19;72.49;99561.69;6382175;22;20019;-92
2022/11/17 05:37:42;;;;;;;64.47;29.38;;;;;;;11.86;72.54;99512.97;6368148;22;20115;-94
2022/11/17 05:40:17;;;;;;;59.58;31.17;;;;;;;12.03;72.69;99539.44;6343657;22;20098;-92
2022/11/17 05:42:46;;;;;;;63.65;31.48;;;;;;;12.16;72.65;99544.06;6342704;22;19990;-92
2022/11/17 05:45:16;;;;;;;59.42;31.63;;;;;;;12.37;72.68;99562.00;6367361;22;20002;-93
2022/11/17 05:48:08;;;;;;;72.50;33.25;;;;;;;12.24;72.31;99533.13;6341564;22;20018;-94
2022/11/17 05:50:37;;;;;;;71.10;32.58;;;;;;;12.51;72.15;99556.69;6367457;22;20021;-92
2022/11/17 05:53:06;;;;;;;62.28;31.48;;;;;;;12.44;71.74;99544.00;6339809;22;20461;-94
2022/11/17 05:55:43;;;;;;;51.20;27.23;;;;;;;12.69;71.76;99551.59;6315296;22;20026;-93
2022/11/17 05:58:23;;;;;;;54.70;30.42;;;;;;;12.51;71.53;99518.94;6364780;22;20018;-93
2022/11/17 06:00:54;;;;;;;51.50;27.05;;;;;;;12.76;71.33;99547.03;6344344;22;20097;-94
2022/11/17 06:03:38;;;;;;;62.22;31.50;;;;;;;12.70;71.46;99523.56;6348853;22;20068;-94
2022/11/17 06:12:23;;;;;;;61.35;29.77;;;;;;;13.23;70.45;99563.34;6271431;22;20425;31
2022/11/17 06:48:40;;;;;;;35.05;20.30;;;;;;;16.33;59.93;99490.06;6304703;22;20026;-91
2022/11/17 07:17:45;;;;;;;17.50;11.82;;;;;;;28.35;31.11;99473.28;6332126;22;20011;-91
2022/11/17 07:20:39;;;;;;;14.85;11.60;;;;;;;29.31;29.61;99477.00;6278040;22;20040;-92
2022/11/17 07:23:41;;;;;;;15.60;11.18;;;;;;;30.00;28.33;99458.06;6334209;22;20018;-96
2022/11/17 07:26:10;;;;;;;15.80;11.93;;;;;;;30.72;27.04;99450.44;6346933;22;20010;-93
2022/11/17 07:31:22;;;;;;;13.52;9.95;;;;;;;31.83;25.04;99419.31;6331666;22;20066;-94
2022/11/17 07:34:18;;;;;;;17.45;10.50;;;;;;;32.63;24.21;99453.94;6381612;22;20021;-96
2022/11/17 07:38:07;;;;;;;;;;;;;;;;;;;;;
2022/11/17 07:40:47;;;;;;;12.93;10.60;;;;;;;33.32;22.82;99408.84;6314398;22;20023;-94
2022/11/17 07:43:49;;;;;;;14.68;9.77;;;;;;;33.37;23.27;99424.50;6317736;22;20079;-93
2022/11/17 07:46:47;;;;;;;13.52;10.60;;;;;;;34.12;22.57;99412.38;6324264;22;20027;-96
2022/11/17 07:55:48;;;;;;;16.10;10.77;;;;;;;35.13;21.37;99431.00;6363376;22;20019;-96
2022/11/17 07:58:17;;;;;;;25.00;12.00;;;;;;;35.21;20.47;99382.53;6377593;22;20010;-94
2022/11/17 08:03:31;;;;;;;19.00;16.83;;;;;;;35.98;19.75;99386.13;6339405;22;20023;-94
2022/11/17 08:06:08;;;;;;;15.70;11.23;;;;;;;36.18;19.48;99385.06;6339656;22;20023;-95
2022/11/17 08:08:36;;;;;;;19.55;12.38;;;;;;;36.54;19.38;99372.66;6311444;22;20039;-91
2022/11/17 08:11:11;;;;;;;18.80;13.02;;;;;;;36.64;19.29;99379.69;6309491;22;20006;-89
2022/11/17 08:13:39;;;;;;;;;;;;;;;36.98;18.74;99400.41;6284176;22;20053;-94
2022/11/17 08:16:05;;;;;;;16.00;11.93;;;;;;;37.41;18.21;99378.03;6337638;22;19903;-94
2022/11/17 08:18:43;;;;;;;21.73;12.27;;;;;;;37.00;18.73;99391.63;6285412;22;20015;-95
2022/11/17 08:21:14;;;;;;;14.95;12.13;;;;;;;35.28;19.96;99370.75;6342059;22;20079;-93
2022/11/17 08:23:43;;;;;;;18.10;13.65;;;;;;;34.20;21.46;99377.94;6287647;22;20014;-94
2022/11/17 08:26:11;;;;;;;18.98;12.77;;;;;;;32.58;23.23;99389.00;6341150;22;20019;-93
2022/11/17 08:28:39;;;;;;;22.08;12.75;;;;;;;32.29;23.72;99367.59;6324846;22;20026;-93
2022/11/17 08:31:13;;;;;;;19.98;12.00;;;;;;;33.00;22.59;99354.75;6342801;22;20019;-93
2022/11/17 08:33:53;;;;;;;19.42;12.80;;;;;;;34.42;21.42;99348.75;6314910;22;20007;-94
2022/11/17 08:36:25;;;;;;;14.57;10.60;;;;;;;35.56;20.12;99353.91;6340046;22;20017;-95
2022/11/17 08:38:54;;;;;;;17.00;9.82;;;;;;;35.49;20.29;99376.09;6325209;22;20355;-94
2022/11/17 08:42:03;;;;;;;18.90;10.00;;;;;;;34.69;21.05;99366.69;6316510;22;20123;-94
2022/11/17 08:45:14;;;;;;;19.83;10.57;;;;;;;32.96;22.78;99388.00;6360373;22;20013;-93
2022/11/17 08:56:06;;;;;;;14.73;9.80;;;;;;;31.39;24.99;99387.22;6232846;23;20055;-96
2022/11/17 08:59:40;;;;;;;19.27;11.18;;;;;;;28.09;28.92;99359.72;6229502;23;20011;-94
2022/11/17 09:03:14;;;;;;;14.93;10.27;;;;;;;26.32;31.87;99388.91;6235693;23;20020;-95
2022/11/17 09:06:24;;;;;;;18.70;10.95;;;;;;;26.31;32.06;99388.06;6209459;23;20021;-94
2022/11/17 09:09:37;;;;;;;15.07;10.15;;;;;;;25.61;33.26;99376.78;6153354;23;20069;-95
2022/11/17 09:13:13;;;;;;;12.75;9.70;;;;;;;24.17;35.47;99328.44;6175196;23;19997;-94
2022/11/17 09:16:17;;;;;;;14.82;10.63;;;;;;;23.67;36.85;99363.19;6175417;23;20013;-95
2022/11/17 09:18:51;;;;;;;22.42;10.85;;;;;;;23.14;38.06;99343.56;6090246;23;20001;-96
2022/11/17 09:25:07;;;;;;;15.05;10.30;;;;;;;22.08;40.33;99311.09;6142562;23;20414;-96
2022/11/17 09:30:52;;;;;;;15.23;9.23;;;;;;;21.26;42.80;99348.97;6108818;23;20052;-92
2022/11/17 09:34:32;;;;;;;18.38;9.10;;;;;;;20.68;43.93;99320.66;6072025;23;20058;-93
2022/11/17 09:37:39;;;;;;;15.57;9.25;;;;;;;20.16;45.73;99351.22;6091287;23;20002;-96
2022/11/17 09:40:36;;;;;;;13.57;8.68;;;;;;;19.93;46.43;99347.69;6116886;23;20080;-94
2022/11/17 09:43:45;;;;;;;14.40;8.35;;;;;;;20.03;46.60;99355.16;6146209;23;20021;-93
2022/11/17 09:46:43;;;;;;;14.88;8.60;;;;;;;19.78;47.47;99355.66;6141663;23;20033;-93
2022/11/17 09:53:30;;;;;;;14.98;8.38;;;;;;;19.05;50.63;99372.03;6148663;23;20028;-94
2022/11/17 10:00:25;;;;;;;14.70;6.40;;;;;;;18.30;54.22;99387.56;6178973;23;20032;-93
2022/11/17 10:04:03;;;;;;;13.10;6.80;;;;;;;18.13;54.66;99383.97;6180280;23;20017;-92
2022/11/17 10:06:33;;;;;;;14.02;6.07;;;;;;;17.67;55.89;99391.94;6165465;23;20044;-93
2022/11/17 10:09:42;;;;;;;13.10;6.18;;;;;;;17.28;56.43;99350.88;6164644;23;20018;-94
2022/11/17 10:12:57;;;;;;;10.02;6.35;;;;;;;17.29;57.87;99373.44;6083384;23;20038;-94
2022/11/17 10:16:17;;;;;;;11.65;6.05;;;;;;;17.27;58.61;99376.38;6131423;23;20542;-93
2022/11/17 10:18:43;;;;;;;12.50;6.95;;;;;;;17.12;59.31;99389.59;6121161;23;20038;-93
2022/11/17 10:21:11;;;;;;;13.85;7.25;;;;;;;17.17;59.23;99391.63;6101422;23;20035;-94
2022/11/17 10:23:39;;;;;;;12.88;7.43;;;;;;;17.26;59.58;99366.59;6127550;23;20024;-91
2022/11/17 10:26:18;;;;;;;14.10;7.50;;;;;;;17.12;59.23;99376.03;6140209;23;20074;-92
2022/11/17 10:28:47;;;;;;;11.43;7.60;;;;;;;16.84;60.18;99334.09;6167038;22;20335;-92
2022/11/17 10:31:43;;;;;;;13.48;8.10;;;;;;;17.28;60.52;99396.22;6253909;22;20090;-94
2022/11/17 10:34:31;;;;;;;14.93;7.68;;;;;;;17.17;60.27;99400.59;6290489;22;19995;-94
2022/11/17 10:37:03;;;;;;;14.35;7.05;;;;;;;16.81;61.01;99363.56;6278560;22;20016;-91
2022/11/17 10:43:46;;;;;;;9.15;7.18;;;;;;;16.95;61.99;99356.88;6294648;22;20023;-92
2022/11/17 11:02:54;;;;;;;13.77;6.70;;;;;;;15.97;66.24;99410.41;6384661;22;20068;-91
2022/11/17 11:05:22;;;;;;;11.68;6.95;;;;;;;15.96;66.34;99402.50;6366348;22;20048;-93
2022/11/17 11:07:51;;;;;;;14.85;7.57;;;;;;;15.79;67.58;99403.09;6337454;22;20078;-91
2022/11/17 11:10:51;;;;;;;12.77;7.22;;;;;;;15.93;67.46;99401.06;6301827;22;20021;-92
2022/11/17 11:14:03;;;;;;;10.90;7.47;;;;;;;15.89;66.85;99399.84;6376873;22;20022;-93
2022/11/17 11:16:34;;;;;;;11.25;7.30;;;;;;;15.70;67.13;99376.50;6352401;22;20070;-93
2022/11/17 11:19:38;;;;;;;13.27;7.18;;;;;;;15.74;67.00;99372.31;6360437;22;19998;-94
2022/11/17 11:25:33;;;;;;;17.73;9.30;;;;;;;16.11;67.61;99394.81;6387002;22;20096;-94
2022/11/17 11:28:56;;;;;;;16.27;8.40;;;;;;;16.40;66.58;99395.88;6384141;22;20021;-94
2022/11/17 11:35:38;;;;;;;12.90;8.07;;;;;;;16.30;67.99;99389.34;6396503;22;20069;-93
2022/11/17 11:38:47;;;;;;;15.23;8.95;;;;;;;16.37;68.72;99390.91;6385501;22;20028;-92
2022/11/17 11:41:51;;;;;;;13.90;8.73;;;;;;;16.45;67.71;99389.75;6327683;22;20014;-92
2022/11/17 11:45:11;;;;;;;18.30;9.25;;;;;;;16.39;68.37;99387.97;6392544;22;20010;-96
2022/11/17 11:48:39;;;;;;;18.70;9.50;;;;;;;15.93;69.25;99373.13;6263357;23;20043;-95
2022/11/17 11:51:25;;;;;;;17.60;10.73;;;;;;;15.57;70.73;99350.41;6273367;22;20008;-94
2022/11/17 11:54:16;;;;;;;17.10;11.00;;;;;;;15.87;70.03;99364.00;6275545;22;20006;-93
2022/11/17 11:57:02;;;;;;;16.98;10.48;;;;;;;15.61;71.33;99324.50;6299940;22;20059;-91
2022/11/17 12:00:15;;;;;;;19.42;11.40;;;;;;;15.91;71.14;99361.69;6269050;22;20045;-92
2022/11/17 12:03:20;;;;;;;18.35;12.13;;;;;;;15.97;70.85;99334.50;6310612;22;20005;-94
2022/11/17 12:06:43;;;;;;;20.63;12.35;;;;;;;15.87;70.91;99325.25;6393978;22;20014;-95
2022/11/17 12:09:59;;;;;;;19.70;12.55;;;;;;;15.86;70.75;99324.44;6367743;22;20070;-91
2022/11/17 12:13:09;;;;;;;21.20;13.57;;;;;;;15.82;70.29;99315.09;6358944;22;20045;-94
2022/11/17 12:15:57;;;;;;;20.00;12.10;;;;;;;15.98;70.41;99343.47;6381264;22;19998;-90
2022/11/17 12:18:29;;;;;;;19.25;11.70;;;;;;;15.85;71.11;99330.06;6374903;22;20010;-94
2022/11/17 12:21:29;;;;;;;20.60;12.48;;;;;;;16.07;70.41;99344.81;6355020;22;19998;-93
2022/11/17 12:24:17;;;;;;;18.75;12.10;;;;;;;16.09;70.79;99364.38;6371829;22;20033;-94
2022/11/17 12:26:47;;;;;;;18.73;11.40;;;;;;;15.91;70.61;99361.69;6345924;22;20087;-93
2022/11/17 12:29:25;;;;;;;19.77;12.50;;;;;;;15.96;70.62;99376.19;6352443;22;20022;-92
2022/11/17 12:31:53;;;;;;;20.42;13.10;;;;;;;15.81;71.26;99363.06;6328205;22;20017;-91
2022/11/17 12:35:01;;;;;;;19.85;13.32;;;;;;;15.52;71.00;99329.41;6377850;22;20154;-94
2022/11/17 12:37:28;;;;;;;20.52;12.10;;;;;;;15.70;70.73;99344.84;6375790;22;20010;-94
2022/11/17 12:40:08;;;;;;;20.02;11.98;;;;;;;15.60;70.94;99344.50;6375452;22;20037;-93
2022/11/17 12:42:46;;;;;;;20.08;11.65;;;;;;;15.53;70.88;99343.75;6320410;22;20108;-94
2022/11/17 12:45:42;;;;;;;20.75;11.40;;;;;;;15.52;71.48;99347.50;6321776;22;20094;-93
2022/11/17 12:48:13;;;;;;;20.10;11.88;;;;;;;15.75;71.58;99373.97;6344089;22;20014;-92
2022/11/17 12:50:54;;;;;;;21.30;11.98;;;;;;;15.58;71.66;99369.13;6316350;22;20011;-93
2022/11/17 12:53:39;;;;;;;25.38;13.45;;;;;;;15.55;71.56;99352.50;6342713;22;20113;-94
2022/11/17 12:56:27;;;;;;;22.45;13.88;;;;;;;15.91;71.53;99384.19;6379077;22;19998;-92
2022/11/17 12:58:57;;;;;;;;;;;;;;;16.00;71.06;99385.53;6380885;22;20002;-91
2022/11/17 13:01:48;;;;;;;24.85;14.40;;;;;;;15.96;71.40;99383.50;6345773;22;19933;-93
2022/11/17 13:04:16;;;;;;;20.08;13.65;;;;;;;16.06;70.68;99400.09;6344386;22;20010;-94
2022/11/17 13:07:07;;;;;;;23.35;13.07;;;;;;;16.14;70.57;99399.75;6346857;22;20002;-94
2022/11/17 13:09:58;;;;;;;22.10;13.32;;;;;;;16.03;71.33;99397.81;6313336;22;20010;-92
2022/11/17 13:12:32;;;;;;;21.08;13.27;;;;;;;15.88;70.49;99357.56;6346178;22;20021;-93
2022/11/17 13:15:05;;;;;;;20.08;12.88;;;;;;;15.91;70.59;99372.53;6340197;22;20335;-94
2022/11/17 13:17:47;;;;;;;24.17;11.63;;;;;;;15.61;70.84;99357.81;6322033;22;20014;-93
2022/11/17 13:20:26;;;;;;;16.30;9.65;;;;;;;15.70;70.22;99355.66;6324808;22;20412;-91
2022/11/17 13:23:14;;;;;;;20.70;10.68;;;;;;;16.22;69.63;99406.75;6345613;22;20065;-93
2022/11/17 13:26:09;;;;;;;20.13;9.10;;;;;;;15.87;69.62;99372.16;6373037;22;20014;-93
2022/11/17 13:28:50;;;;;;;14.10;8.40;;;;;;;15.93;70.02;99411.09;6383180;22;20490;-95
2022/11/17 13:31:36;;;;;;;12.98;8.30;;;;;;;15.57;70.04;99351.22;6336435;22;20163;-93
2022/11/17 13:35:12;;;;;;;12.55;8.20;;;;;;;16.08;69.51;99406.09;6341377;22;20094;-94
2022/11/17 13:38:08;;;;;;;17.00;8.80;;;;;;;16.09;69.08;99390.66;6358624;22;20017;-93
2022/11/17 13:40:54;;;;;;;15.77;8.00;;;;;;;16.19;68.64;99391.78;6327528;22;20006;-94
2022/11/17 13:43:40;;;;;;;13.77;8.43;;;;;;;16.34;68.93;99431.22;6329800;22;20091;-96
2022/11/17 13:46:14;;;;;;;14.13;8.18;;;;;;;16.40;68.21;99403.19;6366395;22;20082;-94
2022/11/17 13:52:13;;;;;;;18.35;9.00;;;;;;;16.40;68.13;99405.91;6351902;22;20018;-94
2022/11/17 13:54:50;;;;;;;18.67;8.68;;;;;;;16.16;68.11;99392.22;6382567;22;20018;-94
2022/11/17 14:01:32;;;;;;;13.98;8.93;;;;;;;16.16;68.75;99413.09;6290785;22;20046;-95
2022/11/17 14:04:25;;;;;;;14.05;8.25;;;;;;;15.66;69.88;99388.81;6294670;22;20071;-95
2022/11/17 14:07:01;;;;;;;15.85;8.52;;;;;;;15.55;70.02;99364.16;6231479;22;20008;-91
2022/11/17 14:10:14;;;;;;;;;;;;;;;;;;;;;
2022/11/17 14:13:16;;;;;;;17.45;9.50;;;;;;;15.78;70.46;99430.41;6251636;22;20020;-92
2022/11/17 14:16:04;;;;;;;15.98;9.32;;;;;;;15.61;71.19;99422.00;6278991;22;20015;-91
2022/11/17 14:18:36;;;;;;;20.27;10.50;;;;;;;15.50;71.70;99434.44;6252820;22;20008;-91
2022/11/17 14:21:16;;;;;;;21.17;10.98;;;;;;;15.03;72.71;99381.72;6250486;22;20030;-91
2022/11/17 14:24:13;;;;;;;25.67;11.85;;;;;;;15.17;72.64;99389.53;6256358;22;20047;-94
2022/11/17 14:27:50;;;;;;;27.42;12.10;;;;;;;15.30;73.30;99425.66;6291102;22;20011;-94
2022/11/17 14:31:06;;;;;;;26.33;11.93;;;;;;;15.13;73.43;99431.63;6248505;22;20030;-93
2022/11/17 14:33:53;;;;;;;21.95;12.25;;;;;;;14.93;73.65;99398.47;6265698;22;20011;-94
2022/11/17 14:40:41;;;;;;;27.85;12.93;;;;;;;14.80;73.79;99407.50;6326877;22;20040;-94
2022/11/17 14:43:27;;;;;;;29.70;14.43;;;;;;;14.88;74.50;99461.34;6271556;22;20403;-91
2022/11/17 14:46:27;;;;;;;29.92;14.00;;;;;;;14.90;74.48;99464.69;6285991;22;20406;-91
2022/11/17 14:49:00;;;;;;;29.08;13.77;;;;;;;14.70;74.09;99420.69;6283677;22;20015;-93
2022/11/17 14:51:27;;;;;;;29.25;13.95;;;;;;;14.52;74.70;99434.91;6281654;22;20152;-92
2022/11/17 14:54:16;;;;;;;25.73;14.13;;;;;;;14.64;75.13;99470.25;6310441;22;20060;-89
2022/11/17 14:56:57;;;;;;;33.80;14.07;;;;;;;14.23;74.71;99411.97;6288331;22;20019;-93
2022/11/17 14:59:42;;;;;;;23.00;11.68;;;;;;;14.55;74.33;99470.50;6299319;22;20023;-92
2022/11/17 15:02:50;;;;;;;22.05;11.68;;;;;;;14.57;74.45;99481.94;6328741;22;19995;-90
2022/11/17 15:05:38;;;;;;;25.30;11.25;;;;;;;14.47;74.70;99486.94;6305427;22;20007;-91
2022/11/17 15:08:35;;;;;;;28.38;11.73;;;;;;;14.52;74.28;99489.00;6327271;22;20022;-91
2022/11/17 15:11:08;;;;;;;23.27;12.23;;;;;;;14.28;74.60;99479.72;6314389;22;20015;-91
2022/11/17 15:13:38;;;;;;;29.48;11.90;;;;;;;14.15;74.26;99478.75;6287044;22;20048;-91
2022/11/17 15:16:43;;;;;;;20.10;10.70;;;;;;;14.32;73.46;99491.78;6288291;22;19995;-91
2022/11/17 15:19:20;;;;;;;18.38;9.48;;;;;;;14.27;72.69;99491.59;6312761;22;20025;-92
2022/11/17 15:25:13;;;;;;;17.27;7.03;;;;;;;13.90;72.32;99458.84;6380796;22;20089;-91
2022/11/17 15:27:49;;;;;;;17.00;8.23;;;;;;;14.17;72.01;99499.34;6329433;22;20044;-91
2022/11/17 15:30:45;;;;;;;15.52;6.60;;;;;;;14.13;71.42;99505.16;6349563;22;20010;-92
2022/11/17 15:33:27;;;;;;;11.95;6.72;;;;;;;13.94;71.49;99482.53;6348536;22;20002;-90
2022/11/17 15:36:06;;;;;;;11.25;6.15;;;;;;;13.95;72.05;99515.78;6371445;22;20347;-92
2022/11/17 15:38:52;;;;;;;12.90;6.32;;;;;;;13.83;72.18;99490.47;6335429;22;19994;-92
2022/11/17 15:41:28;;;;;;;12.87;7.40;;;;;;;13.78;72.09;99509.19;6341517;22;20009;-89
2022/11/17 15:44:01;;;;;;;21.40;9.98;;;;;;;13.66;71.93;99485.50;6366941;22;20264;-90
2022/11/17 15:46:33;;;;;;;21.58;9.30;;;;;;;13.77;72.01;99519.16;6363348;22;20010;-92
2022/11/17 15:49:00;;;;;;;19.88;6.85;;;;;;;13.59;71.83;99490.06;6372072;22;20018;-91
2022/11/17 15:51:26;;;;;;;15.45;6.28;;;;;;;13.84;71.92;99532.66;6295327;22;20037;-90
2022/11/17 15:53:52;;;;;;;22.90;6.47;;;;;;;13.77;71.34;99513.75;6318345;22;20007;-92
2022/11/17 15:56:21;;;;;;;21.05;6.63;;;;;;;13.68;71.26;99510.44;6318659;22;20423;-92
2022/11/17 15:59:09;;;;;;;12.40;6.18;;;;;;;13.85;71.13;99527.03;6340583;22;20010;-92
2022/11/17 16:01:36;;;;;;;14.68;7.65;;;;;;;13.46;71.20;99487.38;6319881;22;20014;-91
2022/11/17 16:04:24;;;;;;;15.63;6.28;;;;;;;13.73;71.05;99542.22;6346797;22;20009;-90
2022/11/17 16:07:09;;;;;;;13.23;5.60;;;;;;;13.44;71.31;99501.09;6305910;22;20100;-92
2022/11/17 16:09:36;;;;;;;13.50;6.10;;;;;;;13.48;71.32;99537.44;6345020;22;20114;-90
2022/11/17 16:12:06;;;;;;;13.95;5.90;;;;;;;13.29;71.42;99520.19;6348813;22;20331;-93
2022/11/17 16:21:22;;;;;;;24.27;6.57;;;;;;;13.36;71.29;99544.47;6330643;22;20034;-93
2022/11/17 16:24:01;;;;;;;14.88;6.43;;;;;;;13.10;70.80;99518.28;6300594;22;20059;-93
2022/11/17 16:29:57;;;;;;;13.48;7.28;;;;;;;13.09;71.51;99555.22;6361456;22;20159;-94
2022/11/17 16:32:43;;;;;;;17.90;7.18;;;;;;;13.19;70.79;99549.44;6315530;22;20033;-93
2022/11/17 16:38:10;;;;;;;20.17;8.48;;;;;;;13.27;71.02;99578.97;6350766;22;20053;-95
2022/11/17 16:55:53;;;;;;;20.08;9.85;;;;;;;12.83;71.58;99550.59;6344172;22;20041;-93
2022/11/17 16:58:24;;;;;;;33.92;16.58;;;;;;;12.86;71.89;99560.97;6330714;22;20022;-94
2022/11/17 17:01:53;;;;;;;48.25;22.92;;;;;;;12.62;72.01;99521.06;6362134;22;20011;-94
2022/11/17 17:05:25;;;;;;;46.88;17.80;;;;;;;12.55;72.42;99537.22;6352888;22;20032;-92
2022/11/17 17:08:48;;;;;;;35.55;15.50;;;;;;;12.52;72.35;99545.69;6362809;22;20015;-92
2022/11/17 17:17:54;;;;;;;36.97;15.88;;;;;;;12.65;73.45;99601.53;6368174;22;20033;-93
2022/11/17 17:27:08;;;;;;;;;;;;;;;;;;;;;
2022/11/17 17:30:35;;;;;;;41.85;22.77;;;;;;;12.65;73.49;99625.81;6346405;22;20034;-94
2022/11/17 17:45:16;;;;;;;;;;;;;;;;;;;;;
2022/11/17 17:58:16;;;;;;;25.55;14.52;;;;;;;12.14;75.07;99626.13;6236181;23;20508;-95
2022/11/17 18:01:50;;;;;;;23.90;14.00;;;;;;;12.37;74.95;99664.44;6229659;23;20024;-96
2022/11/17 18:08:11;;;;;;;32.67;15.45;;;;;;;12.32;75.02;99676.84;6269898;22;20071;-92
2022/11/17 18:11:05;;;;;;;32.90;16.35;;;;;;;12.29;75.29;99663.72;6364393;22;20058;-92
2022/11/17 18:14:28;;;;;;;33.28;18.25;;;;;;;12.20;75.72;99657.69;6318438;22;20022;-93
2022/11/17 18:17:47;;;;;;;30.20;15.32;;;;;;;12.17;75.66;99650.78;6237067;22;20013;31
2022/11/17 18:21:15;;;;;;;25.55;15.40;;;;;;;12.19;75.78;99661.38;6346803;22;20030;-94
2022/11/17 18:24:15;;;;;;;23.02;12.80;;;;;;;12.09;75.97;99664.44;6302824;22;20030;-94
2022/11/17 18:27:06;;;;;;;24.23;12.80;;;;;;;11.74;76.18;99620.38;6349690;22;20019;-93
2022/11/17 18:33:30;;;;;;;;;;;;;;;;;;;;;
2022/11/17 18:36:25;;;;;;;22.25;13.23;;;;;;;11.90;76.52;99671.31;6388389;22;20026;-92
2022/11/17 18:39:23;;;;;;;20.92;12.38;;;;;;;11.64;76.46;99630.66;6358410;22;20014;-92